Carolina, PR (00979)

5:25 PM AST on October 25, 2014 (GMT -0400)
Manejo de Emergencias Carolina | Change Station
CLOSE
Current Station
Personal Weather Station
Location: Carolina, PR
Elevation: 40 ft
Nearby Weather Stations

Elev 40 ft 18.38 °N, 65.97 °W | Updated 2 minutes ago

Scattered Clouds
Scattered Clouds
89.7 °F
Feels Like 101 °F
N
8.0
Wind Variable Wind from SW
Gusts 18.0 mph

Today
High -- | Low -- °F
--% Chance of Precip.
Yesterday
High -- | Low -- °F
Precip. -- in
6:20 AM 5:54 PM
Waxing Crescent, 4% visible
Pressure 29.83 in
Visibility 10.0 miles
Clouds Few 3700 ft
Scattered Clouds 15000 ft
Heat Index 101 °F
Dew Point 76 °F
Humidity 64%
Rainfall -999.00 in
Snow Depth Not available.
UV 1 out of 12
Pollen Not available.
Air Quality Not available.
Flu Activity Local Activity
METAR TJSJ 252056Z 14010G15KT 10SM FEW037 SCT150 31/22 A2984 RMK AO2 SLP102 T03110222 55006

More Conditions Fewer Conditions

Pressure 29.83 in
Visibility 10.0 miles
Clouds Few 3700 ft
Scattered Clouds 15000 ft
Heat Index 101 °F
Dew Point 76 °F
Humidity 64%
Rainfall -999.00 in
Snow Depth Not available.
UV 1 out of 12
Pollen Not available.
Air Quality Not available.
Flu Activity Local Activity
METAR TJSJ 252056Z 14010G15KT 10SM FEW037 SCT150 31/22 A2984 RMK AO2 SLP102 T03110222 55006

More Conditions Fewer Conditions

10-Day Weather Forecast

Almanac

Astronomy

Oct. 25, 2014 Rise Set
Actual Time 6:20 AM AST 5:54 PM AST
Civil Twilight 5:58 AM AST 6:17 PM AST
Nautical Twilight 5:32 AM AST 6:42 PM AST
Astronomical Twilight 5:07 AM AST 7:08 PM AST
Moon 7:46 AM AST 7:26 PM AST
Length of Visible Light 12h 18m
Length of Day
11h 34m
Tomorrow will be 0m 57s shorter.
Waxing Crescent, 4% of the Moon is Illuminated
Today
Waxing Crescent
Oct 30
First Quarter
Nov 6
Full
Nov 14
Last Quarter
Nov 22
New

Community

WunderPhotos

Upload Photos

1,765,001 photos uploaded!

Nearby

Snow Depth

Station Depth Elevation
No new snow has been reported.

Earthquake Activity

City Distance Mag. Time & Date
No recent earthquake activity has been reported nearby.
Minimum magnitude displayed is 2.5.

Coastal Water Temperatures

Place Temperature
San Juan, PR 87.1 °F
Mayaguez, PR 86.0 °F
Esperanza, PR 86.0 °F

Nearby Weather Stations